createdAt,value
2023-01-19T00:01:34.378Z,47.40
2023-01-19T00:04:02.469Z,48.00
2023-01-19T00:06:31.569Z,48.60
2023-01-19T00:09:00.020Z,48.23
2023-01-19T00:11:28.249Z,46.63
2023-01-19T00:13:56.474Z,46.00
2023-01-19T00:16:26.001Z,45.20
2023-01-19T00:18:54.286Z,45.80
2023-01-19T00:21:22.939Z,46.00
2023-01-19T00:23:52.861Z,46.40
2023-01-19T00:26:22.854Z,45.67
2023-01-19T00:28:51.269Z,45.47
2023-01-19T00:31:21.915Z,44.33
2023-01-19T00:33:52.963Z,44.03
2023-01-19T00:36:21.518Z,44.67
2023-01-19T00:38:49.649Z,42.87
2023-01-19T00:41:17.776Z,47.40
2023-01-19T00:43:45.147Z,45.37
2023-01-19T00:46:13.330Z,43.33
2023-01-19T00:48:41.569Z,43.83
2023-01-19T00:51:11.030Z,44.53
2023-01-19T00:53:39.082Z,46.57
2023-01-19T00:56:08.119Z,47.57
2023-01-19T00:58:36.244Z,44.83
2023-01-19T01:01:04.971Z,45.03
2023-01-19T01:03:33.382Z,44.50
2023-01-19T01:06:01.469Z,45.13
2023-01-19T01:08:31.078Z,43.47
2023-01-19T01:10:59.310Z,44.40
2023-01-19T01:13:29.294Z,42.93
2023-01-19T01:15:58.295Z,42.63
2023-01-19T01:18:26.481Z,41.70
2023-01-19T01:20:56.198Z,43.67
2023-01-19T01:23:24.527Z,42.57
2023-01-19T01:25:54.141Z,44.13
2023-01-19T01:28:22.264Z,43.27
2023-01-19T01:30:54.994Z,42.47
2023-01-19T01:33:41.288Z,43.23
2023-01-19T01:36:10.341Z,43.13
2023-01-19T01:38:38.479Z,44.87
2023-01-19T01:41:08.640Z,42.70
2023-01-19T01:43:46.029Z,42.17
2023-01-19T01:46:16.295Z,41.13
2023-01-19T01:48:47.794Z,41.23
2023-01-19T01:51:25.619Z,41.87
2023-01-19T01:54:02.401Z,40.87
2023-01-19T01:56:36.145Z,39.80
2023-01-19T01:59:07.610Z,40.00
2023-01-19T02:01:54.765Z,39.23
2023-01-19T02:04:25.015Z,40.83
2023-01-19T02:07:11.056Z,41.07
2023-01-19T02:09:56.557Z,40.30
2023-01-19T02:12:43.793Z,40.83
2023-01-19T02:15:17.776Z,39.80
2023-01-19T02:17:46.231Z,41.43
2023-01-19T02:20:14.921Z,40.20
2023-01-19T02:22:52.067Z,37.77
2023-01-19T02:25:21.753Z,39.00
2023-01-19T02:27:52.829Z,39.70
2023-01-19T02:30:21.119Z,39.70
2023-01-19T02:32:50.000Z,39.07
2023-01-19T02:35:18.194Z,40.30
2023-01-19T02:37:46.790Z,38.43
2023-01-19T02:40:19.791Z,38.07
2023-01-19T02:42:51.700Z,37.37
2023-01-19T02:45:23.063Z,38.93
2023-01-19T02:47:53.719Z,37.27
2023-01-19T02:50:43.753Z,37.30
2023-01-19T02:53:53.470Z,37.23
2023-01-19T02:56:45.686Z,36.97
2023-01-19T02:59:30.091Z,40.37
2023-01-19T03:02:19.363Z,39.77
2023-01-19T03:05:00.688Z,37.30
2023-01-19T03:07:39.311Z,39.93
2023-01-19T03:10:16.422Z,40.33
2023-01-19T03:12:50.256Z,38.73
2023-01-19T03:15:23.706Z,39.27
2023-01-19T03:17:54.326Z,39.60
2023-01-19T03:20:25.651Z,38.20
2023-01-19T03:22:57.413Z,38.20
2023-01-19T03:25:27.314Z,36.90
2023-01-19T03:27:58.699Z,36.33
2023-01-19T03:30:33.252Z,36.57
2023-01-19T03:33:07.353Z,37.80
2023-01-19T03:35:40.117Z,37.87
2023-01-19T03:38:13.643Z,39.87
2023-01-19T03:40:42.871Z,40.57
2023-01-19T03:43:11.451Z,40.43
2023-01-19T03:45:41.501Z,39.97
2023-01-19T03:48:10.071Z,38.83
2023-01-19T03:50:38.292Z,35.77
2023-01-19T03:53:10.677Z,36.60
2023-01-19T03:55:41.159Z,37.70
2023-01-19T03:58:09.310Z,40.10
2023-01-19T04:00:38.243Z,38.67
2023-01-19T04:03:13.905Z,41.77
2023-01-19T04:05:42.448Z,44.90
2023-01-19T04:08:10.750Z,42.27
2023-01-19T04:10:39.554Z,43.80
2023-01-19T04:13:07.758Z,44.27
2023-01-19T04:15:35.820Z,41.70
2023-01-19T04:18:03.994Z,42.87
2023-01-19T04:20:33.959Z,39.97
2023-01-19T04:23:03.418Z,40.07
2023-01-19T04:25:31.669Z,49.43
2023-01-19T04:27:59.757Z,45.90
2023-01-19T04:30:28.616Z,47.60
2023-01-19T04:32:56.818Z,46.57
2023-01-19T04:35:24.927Z,45.27
2023-01-19T04:37:54.355Z,43.47
2023-01-19T04:40:22.472Z,48.67
2023-01-19T04:42:51.098Z,50.33
2023-01-19T04:45:19.175Z,48.13
2023-01-19T04:47:47.193Z,49.17
2023-01-19T04:50:15.355Z,48.97
2023-01-19T04:52:43.449Z,46.17
2023-01-19T04:55:13.251Z,44.47
2023-01-19T04:57:41.498Z,43.27
2023-01-19T05:00:11.024Z,40.07
2023-01-19T05:02:39.124Z,42.43
2023-01-19T05:05:07.483Z,38.03
2023-01-19T05:07:35.585Z,42.03
2023-01-19T05:10:03.730Z,40.67
2023-01-19T05:12:33.162Z,46.20
2023-01-19T05:15:01.695Z,43.87
2023-01-19T05:17:29.793Z,45.47
2023-01-19T05:19:57.908Z,47.17
2023-01-19T05:22:25.994Z,43.30
2023-01-19T05:24:54.444Z,44.43
2023-01-19T05:27:22.542Z,48.60
2023-01-19T05:29:52.111Z,43.17
2023-01-19T05:32:20.193Z,42.87
2023-01-19T05:34:48.365Z,43.90
2023-01-19T05:37:16.404Z,43.43
2023-01-19T05:39:44.512Z,42.03
2023-01-19T05:42:12.581Z,42.60
2023-01-19T05:44:40.713Z,41.67
2023-01-19T05:47:10.411Z,43.60
2023-01-19T05:49:38.523Z,42.83
2023-01-19T05:52:06.625Z,42.60
2023-01-19T05:54:34.823Z,43.90
2023-01-19T05:57:03.189Z,46.27
2023-01-19T05:59:31.264Z,48.80
2023-01-19T06:02:00.079Z,50.03
2023-01-19T06:04:29.911Z,45.33
2023-01-19T06:06:58.008Z,46.27
2023-01-19T06:09:26.104Z,50.10
2023-01-19T06:11:56.671Z,52.63
2023-01-19T06:14:25.188Z,54.97
2023-01-19T06:16:53.487Z,53.20
2023-01-19T06:19:21.596Z,53.17
2023-01-19T06:21:52.497Z,53.47
2023-01-19T06:24:24.283Z,51.23
2023-01-19T06:26:52.525Z,50.90
2023-01-19T06:29:20.719Z,47.30
2023-01-19T06:31:49.675Z,50.90
2023-01-19T06:34:19.090Z,51.17
2023-01-19T06:36:47.389Z,52.50
2023-01-19T06:39:16.869Z,51.93
2023-01-19T06:41:44.960Z,53.17
2023-01-19T06:44:13.099Z,53.90
2023-01-19T06:46:41.261Z,52.10
2023-01-19T06:49:15.294Z,51.00
2023-01-19T06:51:43.441Z,48.43
2023-01-19T06:54:11.736Z,52.97
2023-01-19T06:56:41.270Z,52.30
2023-01-19T06:59:10.000Z,52.30
2023-01-19T07:01:38.528Z,50.30
2023-01-19T07:04:07.029Z,49.00
2023-01-19T07:06:35.250Z,49.50
2023-01-19T07:09:08.178Z,47.60
2023-01-19T07:11:36.357Z,46.20
2023-01-19T07:14:06.502Z,47.83
2023-01-19T07:16:34.770Z,47.93
2023-01-19T07:19:02.967Z,49.53
2023-01-19T07:21:31.209Z,50.80
2023-01-19T07:23:59.261Z,52.87
2023-01-19T07:26:28.099Z,51.40
2023-01-19T07:28:56.175Z,51.87
2023-01-19T07:31:25.858Z,54.07
2023-01-19T07:33:54.013Z,52.57
2023-01-19T07:36:22.201Z,53.30
2023-01-19T07:38:50.289Z,49.40
2023-01-19T07:41:18.339Z,49.47
2023-01-19T07:43:46.465Z,58.00
2023-01-19T07:46:19.636Z,51.07
2023-01-19T07:48:49.321Z,51.90
2023-01-19T07:51:18.999Z,51.70
2023-01-19T07:53:48.346Z,50.50
2023-01-19T07:56:16.427Z,49.87
2023-01-19T07:58:44.566Z,49.60
2023-01-19T08:01:14.362Z,52.53
2023-01-19T08:03:43.059Z,52.40
2023-01-19T08:06:21.024Z,53.37
2023-01-19T08:08:49.940Z,50.17
2023-01-19T08:11:18.227Z,47.70
2023-01-19T08:13:46.550Z,50.53
2023-01-19T08:16:14.634Z,55.10
2023-01-19T08:18:42.733Z,54.60
2023-01-19T08:21:11.117Z,54.40
2023-01-19T08:23:41.168Z,58.00
2023-01-19T08:26:28.408Z,57.47
2023-01-19T08:28:58.710Z,57.97
2023-01-19T08:31:27.693Z,61.50
2023-01-19T08:33:55.951Z,57.97
2023-01-19T08:36:25.135Z,59.77
2023-01-19T08:38:54.955Z,55.83
2023-01-19T08:41:23.395Z,54.93
2023-01-19T08:43:51.686Z,59.00
2023-01-19T08:46:22.042Z,60.70
2023-01-19T08:48:50.584Z,58.17
2023-01-19T08:51:19.419Z,60.10
2023-01-19T08:53:47.783Z,59.23
2023-01-19T08:56:20.341Z,59.97
2023-01-19T08:58:59.522Z,59.43
2023-01-19T09:01:37.117Z,58.53
2023-01-19T09:04:05.914Z,65.07
2023-01-19T09:06:34.272Z,63.50
2023-01-19T09:09:02.394Z,71.87
2023-01-19T09:11:32.007Z,75.83
2023-01-19T09:14:00.090Z,72.27
2023-01-19T09:16:29.336Z,69.60
2023-01-19T09:18:57.409Z,66.70
2023-01-19T09:21:25.503Z,64.90
2023-01-19T09:23:54.815Z,62.63
2023-01-19T09:26:23.873Z,61.67
2023-01-19T09:28:53.363Z,62.07
2023-01-19T09:31:21.501Z,59.70
2023-01-19T09:33:49.798Z,60.47
2023-01-19T09:36:17.938Z,59.87
2023-01-19T09:38:46.148Z,61.00
2023-01-19T09:41:21.984Z,64.23
2023-01-19T09:43:55.913Z,54.90
2023-01-19T09:46:28.672Z,60.80
2023-01-19T09:48:58.745Z,53.77
2023-01-19T09:51:29.407Z,54.73
2023-01-19T09:54:09.303Z,68.07
2023-01-19T09:56:37.818Z,476.40
2023-01-19T09:59:19.542Z,212.03
2023-01-19T10:02:02.585Z,222.10
2023-01-19T10:04:35.589Z,64.67
2023-01-19T10:07:16.625Z,65.27
2023-01-19T10:09:56.054Z,58.73
2023-01-19T10:12:36.931Z,61.17
2023-01-19T10:15:18.493Z,60.00
2023-01-19T10:17:57.417Z,55.73
2023-01-19T10:20:33.066Z,55.50
2023-01-19T10:23:03.211Z,57.07
2023-01-19T10:25:32.266Z,53.83
2023-01-19T10:28:02.016Z,53.17
2023-01-19T10:30:31.594Z,53.47
2023-01-19T10:32:59.915Z,56.57
2023-01-19T10:35:28.297Z,56.53
2023-01-19T10:38:01.450Z,58.63
2023-01-19T10:40:35.155Z,64.13
2023-01-19T10:43:03.777Z,70.80
2023-01-19T10:45:36.704Z,68.93
2023-01-19T10:48:08.079Z,69.47
2023-01-19T10:50:39.828Z,68.40
2023-01-19T10:53:21.668Z,66.93
2023-01-19T10:56:09.889Z,63.70
2023-01-19T10:58:37.975Z,62.47
2023-01-19T11:01:17.655Z,65.83
2023-01-19T11:03:45.890Z,63.50
2023-01-19T11:06:26.147Z,63.40
2023-01-19T11:08:55.406Z,63.80
2023-01-19T11:11:25.723Z,63.57
2023-01-19T11:14:11.297Z,65.37
2023-01-19T11:16:41.693Z,68.27
2023-01-19T11:19:20.439Z,66.43
2023-01-19T11:21:52.560Z,67.07
2023-01-19T11:24:22.003Z,70.90
2023-01-19T11:26:57.623Z,71.10
2023-01-19T11:29:27.767Z,68.47
2023-01-19T11:32:11.155Z,69.17
2023-01-19T11:34:39.906Z,69.70
2023-01-19T11:37:27.431Z,71.37
2023-01-19T11:39:58.205Z,71.33
2023-01-19T11:42:27.397Z,70.53
2023-01-19T11:45:01.452Z,71.30
2023-01-19T11:47:37.083Z,73.00
2023-01-19T11:50:08.184Z,76.53
2023-01-19T11:52:43.684Z,74.83
2023-01-19T11:55:19.724Z,73.27
2023-01-19T11:57:51.532Z,73.37
2023-01-19T12:00:27.014Z,71.70
2023-01-19T12:03:01.905Z,72.23
2023-01-19T12:05:34.473Z,75.27
2023-01-19T12:08:08.117Z,73.67
2023-01-19T12:10:43.706Z,71.93
2023-01-19T12:13:21.532Z,72.67
2023-01-19T12:15:54.563Z,72.37
2023-01-19T12:18:26.882Z,71.00
2023-01-19T12:20:56.704Z,70.40
2023-01-19T12:23:36.938Z,72.67
2023-01-19T12:26:29.101Z,74.73
2023-01-19T12:29:02.981Z,75.53
2023-01-19T12:31:32.876Z,79.33
2023-01-19T12:34:33.608Z,78.30
2023-01-19T12:37:09.383Z,79.63
2023-01-19T12:39:51.092Z,82.33
2023-01-19T12:42:21.341Z,83.10
2023-01-19T12:44:50.099Z,88.10
2023-01-19T12:47:24.432Z,86.90
2023-01-19T12:49:58.735Z,89.00
2023-01-19T12:52:33.467Z,90.93
2023-01-19T12:55:17.295Z,88.53
2023-01-19T12:57:51.860Z,87.47
2023-01-19T13:00:32.268Z,87.97
2023-01-19T13:03:01.523Z,86.73
2023-01-19T13:06:01.200Z,82.30
2023-01-19T13:08:50.961Z,85.87
2023-01-19T13:11:21.001Z,83.90
2023-01-19T13:14:26.805Z,87.27
2023-01-19T13:17:22.447Z,84.80
2023-01-19T13:19:59.985Z,88.10
2023-01-19T13:23:15.553Z,86.40
2023-01-19T13:25:50.564Z,88.17
2023-01-19T13:28:20.729Z,87.97
2023-01-19T13:30:57.957Z,86.67
2023-01-19T13:33:29.316Z,85.37
2023-01-19T13:35:59.615Z,86.27
2023-01-19T13:38:29.115Z,86.57
2023-01-19T13:41:02.974Z,82.67
2023-01-19T13:43:34.532Z,86.60
2023-01-19T13:46:03.688Z,85.50
2023-01-19T13:48:33.401Z,82.37
2023-01-19T13:51:04.473Z,82.23
2023-01-19T13:53:33.380Z,82.30
2023-01-19T13:56:20.651Z,79.77
2023-01-19T13:59:04.988Z,77.40
2023-01-19T14:01:33.372Z,74.17
2023-01-19T14:04:01.846Z,77.13
2023-01-19T14:06:36.121Z,75.43
2023-01-19T14:09:18.359Z,76.17
2023-01-19T14:12:05.187Z,79.57
2023-01-19T14:14:34.008Z,83.63
2023-01-19T14:17:02.265Z,80.30
2023-01-19T14:19:30.791Z,82.33
2023-01-19T14:22:01.159Z,76.07
2023-01-19T14:24:32.152Z,81.10
2023-01-19T14:27:19.899Z,76.03
2023-01-19T14:29:54.822Z,77.77
2023-01-19T14:32:28.863Z,79.17
2023-01-19T14:35:16.951Z,73.70
2023-01-19T14:37:48.889Z,77.07
2023-01-19T14:40:19.995Z,70.03
2023-01-19T14:42:54.133Z,72.00
2023-01-19T14:45:24.894Z,75.20
2023-01-19T14:47:58.580Z,73.30
2023-01-19T14:50:29.192Z,79.27
2023-01-19T14:53:00.748Z,82.87
2023-01-19T14:55:35.024Z,79.13
2023-01-19T14:58:11.685Z,78.23
2023-01-19T15:00:40.447Z,76.23
2023-01-19T15:03:09.944Z,66.50
2023-01-19T15:05:38.407Z,72.60
2023-01-19T15:08:08.098Z,67.57
2023-01-19T15:10:37.507Z,70.13
2023-01-19T15:13:07.011Z,74.23
2023-01-19T15:15:36.394Z,79.97
2023-01-19T15:18:06.013Z,79.03
2023-01-19T15:20:34.174Z,74.83
2023-01-19T15:23:02.273Z,71.30
2023-01-19T15:25:31.696Z,72.40
2023-01-19T15:28:01.024Z,74.03
2023-01-19T15:30:33.851Z,69.87
2023-01-19T15:33:02.527Z,72.77
2023-01-19T15:35:30.998Z,71.37
2023-01-19T15:37:59.894Z,74.20
2023-01-19T15:40:28.113Z,75.30
2023-01-19T15:43:33.766Z,74.33
2023-01-19T15:46:03.651Z,75.40
2023-01-19T15:48:31.787Z,75.13
2023-01-19T15:50:59.943Z,70.50
2023-01-19T15:53:28.134Z,69.37
2023-01-19T15:55:56.961Z,67.67
2023-01-19T16:00:20.822Z,67.43
2023-01-19T16:02:50.310Z,63.60
2023-01-19T16:05:18.551Z,63.93
2023-01-19T16:07:46.651Z,62.63
2023-01-19T16:10:16.935Z,65.10
2023-01-19T16:30:35.632Z,55.27
2023-01-19T16:33:05.367Z,54.47
2023-01-19T16:35:33.674Z,56.17
2023-01-19T16:38:01.754Z,57.80
2023-01-19T16:40:30.034Z,56.37
2023-01-19T16:42:58.788Z,56.60
2023-01-19T16:45:26.998Z,54.67
2023-01-19T16:47:56.463Z,54.40
2023-01-19T16:50:24.573Z,54.40
2023-01-19T16:52:57.683Z,59.47
2023-01-19T16:55:25.835Z,58.27
2023-01-19T16:57:54.201Z,55.37
2023-01-19T17:00:22.859Z,58.83
2023-01-19T17:02:50.972Z,57.23
2023-01-19T17:05:20.466Z,56.57
2023-01-19T17:07:48.601Z,56.90
2023-01-19T17:10:17.474Z,55.70
2023-01-19T17:12:45.539Z,57.60
2023-01-19T17:15:13.690Z,58.67
2023-01-19T17:17:41.741Z,58.77
2023-01-19T17:20:11.252Z,60.13
2023-01-19T17:22:40.944Z,63.13
2023-01-19T17:25:09.935Z,63.83
2023-01-19T17:27:38.021Z,64.83
2023-01-19T17:30:06.851Z,63.17
2023-01-19T17:32:35.788Z,65.20
2023-01-19T17:35:04.071Z,61.27
2023-01-19T17:37:32.170Z,63.97
2023-01-19T17:40:01.736Z,63.67
2023-01-19T17:42:29.829Z,59.20
2023-01-19T17:44:57.976Z,60.53
2023-01-19T17:47:26.165Z,59.23
2023-01-19T17:49:54.302Z,56.50
2023-01-19T17:52:22.466Z,58.70
2023-01-19T17:54:50.763Z,60.30
2023-01-19T17:57:20.190Z,62.00
2023-01-19T17:59:48.320Z,62.43
2023-01-19T18:02:16.508Z,60.07
2023-01-19T18:04:44.977Z,61.83
2023-01-19T18:07:13.042Z,61.67
2023-01-19T18:09:41.175Z,59.00
2023-01-19T18:12:09.440Z,61.30
2023-01-19T18:14:40.357Z,61.83
2023-01-19T18:17:08.585Z,61.20
2023-01-19T18:19:36.705Z,59.83
2023-01-19T18:22:04.921Z,61.03
2023-01-19T18:24:33.002Z,65.60
2023-01-19T18:27:01.117Z,62.33
2023-01-19T18:29:29.250Z,64.87
2023-01-19T18:31:58.876Z,64.33
2023-01-19T18:34:26.924Z,67.63
2023-01-19T18:36:55.266Z,69.47
2023-01-19T18:39:23.304Z,68.67
2023-01-19T18:41:51.398Z,66.30
2023-01-19T18:44:19.593Z,71.07
2023-01-19T18:46:47.715Z,64.60
2023-01-19T18:49:17.326Z,59.73
2023-01-19T18:51:45.516Z,64.03
2023-01-19T18:54:13.769Z,68.93
2023-01-19T18:56:41.998Z,68.23
2023-01-19T18:59:10.777Z,65.17
2023-01-19T19:01:39.038Z,60.93
2023-01-19T19:04:08.239Z,61.50
2023-01-19T19:06:37.781Z,58.47
2023-01-19T19:09:05.925Z,58.07
2023-01-19T19:11:34.104Z,60.80
2023-01-19T19:14:03.395Z,61.63
2023-01-19T19:16:34.903Z,61.33
2023-01-19T19:19:04.034Z,60.33
2023-01-19T19:21:32.082Z,55.73
2023-01-19T19:24:01.724Z,54.57
2023-01-19T19:26:30.872Z,53.30
2023-01-19T19:28:59.071Z,52.53
2023-01-19T19:31:27.765Z,54.87
2023-01-19T19:33:57.393Z,58.47
2023-01-19T19:36:26.473Z,61.10
2023-01-19T19:38:54.976Z,63.60
2023-01-19T19:41:27.122Z,66.67
2023-01-19T19:43:56.068Z,68.57
2023-01-19T19:46:25.318Z,68.07
2023-01-19T19:48:54.673Z,68.30
2023-01-19T19:51:25.607Z,69.17
2023-01-19T19:53:54.694Z,69.33
2023-01-19T19:56:26.290Z,69.67
2023-01-19T19:58:56.584Z,67.93
2023-01-19T20:01:32.045Z,70.37
2023-01-19T20:04:06.991Z,68.37
2023-01-19T20:06:38.844Z,70.60
2023-01-19T20:09:09.031Z,71.87
2023-01-19T20:11:38.730Z,73.10
2023-01-19T20:14:07.735Z,70.97
2023-01-19T20:16:36.275Z,72.37
2023-01-19T20:19:05.243Z,76.07
2023-01-19T20:21:35.704Z,76.73
2023-01-19T20:24:06.368Z,76.77
2023-01-19T20:26:40.967Z,76.33
2023-01-19T20:29:10.351Z,77.37
2023-01-19T20:31:40.746Z,79.70
2023-01-19T20:34:11.055Z,77.00
2023-01-19T20:36:41.195Z,76.17
2023-01-19T20:39:11.185Z,77.43
2023-01-19T20:41:45.128Z,76.60
2023-01-19T20:44:15.352Z,77.47
2023-01-19T20:46:43.790Z,78.03
2023-01-19T20:49:12.060Z,77.70
2023-01-19T20:51:43.479Z,77.77
2023-01-19T20:54:12.851Z,74.57
2023-01-19T20:56:42.624Z,74.97
2023-01-19T20:59:11.931Z,77.83
2023-01-19T21:01:40.918Z,77.47
2023-01-19T21:04:09.759Z,81.03
2023-01-19T21:06:38.356Z,79.40
2023-01-19T21:09:07.376Z,79.83
2023-01-19T21:11:36.056Z,78.87
2023-01-19T21:14:06.116Z,80.73
2023-01-19T21:16:35.708Z,81.40
2023-01-19T21:19:04.132Z,80.95
2023-01-19T21:21:32.384Z,83.33
2023-01-19T21:24:01.913Z,80.77
2023-01-19T21:26:31.056Z,81.00
2023-01-19T21:28:59.743Z,81.13
2023-01-19T21:31:29.583Z,83.20
2023-01-19T21:33:58.222Z,86.00
2023-01-19T21:36:26.866Z,84.83
2023-01-19T21:39:00.195Z,83.17
2023-01-19T21:41:29.952Z,81.60
2023-01-19T21:43:58.632Z,82.03
2023-01-19T21:46:29.434Z,80.30
2023-01-19T21:49:00.919Z,81.10
2023-01-19T21:51:29.261Z,77.90
2023-01-19T21:53:59.712Z,80.63
2023-01-19T21:56:28.975Z,80.57
2023-01-19T21:58:57.888Z,79.97
2023-01-19T22:01:26.061Z,78.90
2023-01-19T22:03:55.675Z,79.50
2023-01-19T22:06:26.694Z,80.70
2023-01-19T22:08:55.645Z,82.20
2023-01-19T22:11:24.876Z,81.43
2023-01-19T22:13:53.099Z,82.27
2023-01-19T22:16:23.318Z,80.53
2023-01-19T22:18:54.192Z,81.90
2023-01-19T22:21:25.601Z,82.40
2023-01-19T22:23:56.029Z,80.87
2023-01-19T22:26:24.761Z,83.23
2023-01-19T22:28:55.085Z,83.07
2023-01-19T22:31:24.689Z,83.87
2023-01-19T22:33:53.763Z,81.57
2023-01-19T22:36:25.096Z,83.10
2023-01-19T22:38:55.699Z,84.03
2023-01-19T22:41:26.126Z,82.77
2023-01-19T22:43:56.608Z,83.87
2023-01-19T22:46:26.724Z,83.90
2023-01-19T22:48:55.898Z,82.43
2023-01-19T22:51:26.329Z,82.70
2023-01-19T22:53:54.424Z,83.57
2023-01-19T22:56:24.486Z,82.00
2023-01-19T22:58:53.159Z,82.47
2023-01-19T23:01:22.912Z,81.60
2023-01-19T23:03:51.566Z,80.93
2023-01-19T23:06:21.461Z,81.97
2023-01-19T23:08:51.666Z,83.63
2023-01-19T23:11:22.620Z,84.37
2023-01-19T23:13:51.242Z,81.37
2023-01-19T23:16:19.864Z,82.47
2023-01-19T23:18:48.464Z,82.27
2023-01-19T23:21:18.991Z,78.73
2023-01-19T23:23:47.674Z,80.57
2023-01-19T23:26:19.027Z,80.80
2023-01-19T23:28:47.924Z,79.53
2023-01-19T23:31:18.402Z,78.13
2023-01-19T23:33:46.669Z,77.60
2023-01-19T23:36:16.010Z,77.83
2023-01-19T23:38:49.787Z,77.73
2023-01-19T23:41:19.563Z,75.90
2023-01-19T23:43:47.697Z,77.67
2023-01-19T23:46:17.343Z,76.60
2023-01-19T23:48:45.854Z,75.47
2023-01-19T23:51:16.471Z,73.77
2023-01-19T23:53:45.069Z,73.03
2023-01-19T23:56:15.938Z,70.93
2023-01-19T23:58:46.647Z,75.27
